Main page
METAR-TAF:

METAR-TAF

Airports :

Oseberg, Norway

Oil platform Norsk Hydro

latitude: 60-29-29N, longitude: 2-49-32E, elevation: 158 m

Current weather observation

The report was made 1 hour and 1 minutes ago, at 03:50 UTC
Wind 28 kt from the East/Southeast
Temperature 12°C
Humidity 71%
Pressure 1003 hPa
Visibility 10 km or more
Broken clouds at a height of 3500 ft

METAR: ENOA 220350Z 11028KT 9999 BKN035 12/07 Q1003 W///S5

Time: 06:51 (04:51 UTC)

Forecast

Forecast valid from 22 at 03 UTC to 23 at 03 UTC
Wind 25 kt from the East/Southeast
Visibility 10 km or more
Broken clouds at a height of 3000 ft
Temporary
from 22 at 06 UTC to 22 at 12 UTC
Scattered clouds at a height of 2500 ft, Cumulonimbus.
Becoming
from 22 at 10 UTC to 22 at 12 UTC
Wind 15 kt from the East
Becoming
from 22 at 22 UTC to 22 at 24 UTC
Wind 10 kt from the South

TAF: ENOA 2203/2303 11025KT 9999 BKN030 TEMPO 2206/2212 SCT025CB BECMG 2210/2212 10015KT BECMG 2222/2224 17010KT

Weather observations and forecasts of more than 4000 airports (METAR and TAF reports).

The available stations are represented by yellow and red dots on the map.

Hover mouse over dot to see the name of the station.

Then click to see weather observations and forecasts.

To change the map : click on the green buttons with a black cross to zoom in, on the green button with a dash to zoom out, or on the green arrows for adjacent maps.


METAR-TAF: